sensor_id;sensor_type;location;lat;lon;timestamp;pressure;altitude;pressure_sealevel;temperature;humidity
67397;BME280;57728;50.448;18.824;2022-08-18T00:00:35;97557.81;;;23.02;61.71
67397;BME280;57728;50.448;18.824;2022-08-18T00:02:38;97548.75;;;23.02;61.72
67397;BME280;57728;50.448;18.824;2022-08-18T00:04:42;97556.22;;;23.01;61.64
67397;BME280;57728;50.448;18.824;2022-08-18T00:06:58;97551.13;;;23.00;61.43
67397;BME280;57728;50.448;18.824;2022-08-18T00:09:04;97566.81;;;22.99;61.30
67397;BME280;57728;50.448;18.824;2022-08-18T00:11:08;97549.09;;;22.97;61.70
67397;BME280;57728;50.448;18.824;2022-08-18T00:13:09;97553.88;;;23.00;61.36
67397;BME280;57728;50.448;18.824;2022-08-18T00:15:13;97549.16;;;23.00;61.53
67397;BME280;57728;50.448;18.824;2022-08-18T00:17:17;97559.34;;;23.00;61.58
67397;BME280;57728;50.448;18.824;2022-08-18T00:19:20;97546.66;;;22.88;61.91
67397;BME280;57728;50.448;18.824;2022-08-18T00:21:23;97558.13;;;22.97;61.46
67397;BME280;57728;50.448;18.824;2022-08-18T00:23:24;97552.63;;;22.97;61.42
67397;BME280;57728;50.448;18.824;2022-08-18T00:25:30;97557.72;;;22.95;61.59
67397;BME280;57728;50.448;18.824;2022-08-18T00:27:32;97552.97;;;22.92;62.03
67397;BME280;57728;50.448;18.824;2022-08-18T00:29:33;97554.56;;;22.93;62.00
67397;BME280;57728;50.448;18.824;2022-08-18T00:31:34;97554.94;;;22.92;61.66
67397;BME280;57728;50.448;18.824;2022-08-18T00:33:37;97550.19;;;22.88;61.57
67397;BME280;57728;50.448;18.824;2022-08-18T00:35:38;97550.53;;;22.87;62.05
67397;BME280;57728;50.448;18.824;2022-08-18T00:37:41;97543.81;;;22.84;61.89
67397;BME280;57728;50.448;18.824;2022-08-18T00:39:44;97539.50;;;22.83;62.13
67397;BME280;57728;50.448;18.824;2022-08-18T00:41:47;97539.84;;;22.82;62.08
67397;BME280;57728;50.448;18.824;2022-08-18T00:43:49;97543.00;;;22.80;61.81
67397;BME280;57728;50.448;18.824;2022-08-18T00:45:52;97540.19;;;22.77;62.14
67397;BME280;57728;50.448;18.824;2022-08-18T00:47:53;97542.53;;;22.75;61.77
67397;BME280;57728;50.448;18.824;2022-08-18T00:49:56;97537.34;;;22.70;62.03
67397;BME280;57728;50.448;18.824;2022-08-18T00:52:02;97538.53;;;22.69;61.84
67397;BME280;57728;50.448;18.824;2022-08-18T00:54:15;97543.28;;;22.72;61.75
67397;BME280;57728;50.448;18.824;2022-08-18T00:56:27;97550.28;;;22.69;61.63
67397;BME280;57728;50.448;18.824;2022-08-18T00:58:41;97542.78;;;22.66;61.76
67397;BME280;57728;50.448;18.824;2022-08-18T01:00:50;97542.00;;;22.66;61.98
67397;BME280;57728;50.448;18.824;2022-08-18T01:02:56;97537.63;;;22.61;61.58
67397;BME280;57728;50.448;18.824;2022-08-18T01:05:17;97544.34;;;22.63;61.55
67397;BME280;57728;50.448;18.824;2022-08-18T01:07:40;97536.75;;;22.53;61.92
67397;BME280;57728;50.448;18.824;2022-08-18T01:09:48;97555.72;;;22.66;61.82
67397;BME280;57728;50.448;18.824;2022-08-18T01:11:54;97553.41;;;22.68;61.60
67397;BME280;57728;50.448;18.824;2022-08-18T01:13:56;97549.50;;;22.69;61.44
67397;BME280;57728;50.448;18.824;2022-08-18T01:16:00;97548.34;;;22.70;61.63
67397;BME280;57728;50.448;18.824;2022-08-18T01:18:22;97543.22;;;22.68;61.15
67397;BME280;57728;50.448;18.824;2022-08-18T01:20:51;97533.31;;;22.60;61.47
67397;BME280;57728;50.448;18.824;2022-08-18T01:23:21;97536.91;;;22.64;61.29
67397;BME280;57728;50.448;18.824;2022-08-18T01:25:23;97545.19;;;22.68;61.37
67397;BME280;57728;50.448;18.824;2022-08-18T01:27:43;97538.47;;;22.65;61.34
67397;BME280;57728;50.448;18.824;2022-08-18T01:29:46;97489.34;;;22.30;61.19
67397;BME280;57728;50.448;18.824;2022-08-18T01:31:52;97544.75;;;22.66;61.47
67397;BME280;57728;50.448;18.824;2022-08-18T01:33:56;97535.28;;;22.59;61.34
67397;BME280;57728;50.448;18.824;2022-08-18T01:36:19;97523.06;;;22.57;61.72
67397;BME280;57728;50.448;18.824;2022-08-18T01:38:23;97532.94;;;22.61;62.00
67397;BME280;57728;50.448;18.824;2022-08-18T01:40:25;97527.38;;;22.58;61.51
67397;BME280;57728;50.448;18.824;2022-08-18T01:42:28;97531.72;;;22.59;62.00
67397;BME280;57728;50.448;18.824;2022-08-18T01:44:29;97529.34;;;22.57;61.76
67397;BME280;57728;50.448;18.824;2022-08-18T01:46:33;97521.06;;;22.54;61.55
67397;BME280;57728;50.448;18.824;2022-08-18T01:48:36;97533.34;;;22.63;61.65
67397;BME280;57728;50.448;18.824;2022-08-18T01:50:37;97526.69;;;22.64;61.84
67397;BME280;57728;50.448;18.824;2022-08-18T01:52:41;97527.47;;;22.65;62.08
67397;BME280;57728;50.448;18.824;2022-08-18T01:54:43;97518.84;;;22.63;61.79
67397;BME280;57728;50.448;18.824;2022-08-18T01:56:44;97518.84;;;22.63;61.69
67397;BME280;57728;50.448;18.824;2022-08-18T01:58:45;97485.69;;;22.49;62.06
67397;BME280;57728;50.448;18.824;2022-08-18T02:00:48;97505.41;;;22.58;62.01
67397;BME280;57728;50.448;18.824;2022-08-18T02:02:50;97493.66;;;22.57;62.14
67397;BME280;57728;50.448;18.824;2022-08-18T02:05:01;97503.44;;;22.55;61.95
67397;BME280;57728;50.448;18.824;2022-08-18T02:07:09;97496.72;;;22.52;62.05
67397;BME280;57728;50.448;18.824;2022-08-18T02:09:12;97501.00;;;22.50;62.44
67397;BME280;57728;50.448;18.824;2022-08-18T02:11:13;97503.72;;;22.46;62.50
67397;BME280;57728;50.448;18.824;2022-08-18T02:13:17;97494.16;;;22.36;62.90
67397;BME280;57728;50.448;18.824;2022-08-18T02:15:18;97491.75;;;22.31;62.88
67397;BME280;57728;50.448;18.824;2022-08-18T02:17:19;97494.91;;;22.33;63.18
67397;BME280;57728;50.448;18.824;2022-08-18T02:19:23;97486.09;;;22.21;62.99
67397;BME280;57728;50.448;18.824;2022-08-18T02:21:24;97495.06;;;22.18;63.13
67397;BME280;57728;50.448;18.824;2022-08-18T02:23:25;97509.94;;;22.17;63.64
67397;BME280;57728;50.448;18.824;2022-08-18T02:25:27;97501.56;;;22.09;64.15
67397;BME280;57728;50.448;18.824;2022-08-18T02:27:28;97501.53;;;22.06;63.69
67397;BME280;57728;50.448;18.824;2022-08-18T02:29:30;97507.44;;;22.08;64.10
67397;BME280;57728;50.448;18.824;2022-08-18T02:31:32;97506.22;;;22.05;64.34
67397;BME280;57728;50.448;18.824;2022-08-18T02:33:33;97519.16;;;22.05;64.09
67397;BME280;57728;50.448;18.824;2022-08-18T02:35:35;97519.53;;;22.03;64.32
67397;BME280;57728;50.448;18.824;2022-08-18T02:37:40;97510.44;;;21.99;64.07
67397;BME280;57728;50.448;18.824;2022-08-18T02:39:42;97496.56;;;21.88;64.25
67397;BME280;57728;50.448;18.824;2022-08-18T02:41:43;97526.91;;;21.99;64.40
67397;BME280;57728;50.448;18.824;2022-08-18T02:43:45;97522.16;;;21.96;64.23
67397;BME280;57728;50.448;18.824;2022-08-18T02:45:48;97515.81;;;21.92;64.39
67397;BME280;57728;50.448;18.824;2022-08-18T02:47:52;97520.13;;;21.93;64.52
67397;BME280;57728;50.448;18.824;2022-08-18T02:49:55;97518.16;;;21.90;64.67
67397;BME280;57728;50.448;18.824;2022-08-18T02:51:57;97521.25;;;21.88;64.73
67397;BME280;57728;50.448;18.824;2022-08-18T02:53:58;97496.63;;;21.69;64.95
67397;BME280;57728;50.448;18.824;2022-08-18T02:56:15;97514.78;;;21.77;65.05
67397;BME280;57728;50.448;18.824;2022-08-18T02:58:22;97499.75;;;21.68;64.88
67397;BME280;57728;50.448;18.824;2022-08-18T03:00:23;97529.41;;;21.85;64.92
67397;BME280;57728;50.448;18.824;2022-08-18T03:02:25;97531.41;;;21.88;64.93
67397;BME280;57728;50.448;18.824;2022-08-18T03:04:28;97535.41;;;21.90;65.10
67397;BME280;57728;50.448;18.824;2022-08-18T03:06:31;97533.78;;;21.89;64.91
67397;BME280;57728;50.448;18.824;2022-08-18T03:08:35;97534.59;;;21.90;64.89
67397;BME280;57728;50.448;18.824;2022-08-18T03:10:37;97536.59;;;21.93;64.65
67397;BME280;57728;50.448;18.824;2022-08-18T03:12:41;97538.94;;;21.91;64.71
67397;BME280;57728;50.448;18.824;2022-08-18T03:14:43;97526.97;;;21.80;64.79
67397;BME280;57728;50.448;18.824;2022-08-18T03:16:48;97535.69;;;21.85;65.03
67397;BME280;57728;50.448;18.824;2022-08-18T03:18:51;97528.88;;;21.76;65.46
67397;BME280;57728;50.448;18.824;2022-08-18T03:20:54;97535.94;;;21.77;65.18
67397;BME280;57728;50.448;18.824;2022-08-18T03:22:55;97546.06;;;21.73;65.48
67397;BME280;57728;50.448;18.824;2022-08-18T03:24:57;97529.38;;;21.58;65.46
67397;BME280;57728;50.448;18.824;2022-08-18T03:27:03;97541.25;;;21.66;65.61
67397;BME280;57728;50.448;18.824;2022-08-18T03:29:08;97542.03;;;21.67;65.62
67397;BME280;57728;50.448;18.824;2022-08-18T03:31:12;97544.00;;;21.66;65.59
67397;BME280;57728;50.448;18.824;2022-08-18T03:33:15;97546.75;;;21.66;66.14
67397;BME280;57728;50.448;18.824;2022-08-18T03:35:16;97540.75;;;21.60;65.97
67397;BME280;57728;50.448;18.824;2022-08-18T03:37:17;97544.34;;;21.64;65.83
67397;BME280;57728;50.448;18.824;2022-08-18T03:39:20;97544.28;;;21.61;66.02
67397;BME280;57728;50.448;18.824;2022-08-18T03:41:25;97545.91;;;21.65;65.94
67397;BME280;57728;50.448;18.824;2022-08-18T03:43:27;97532.91;;;21.59;65.84
67397;BME280;57728;50.448;18.824;2022-08-18T03:45:33;97539.97;;;21.60;65.79
67397;BME280;57728;50.448;18.824;2022-08-18T03:47:34;97548.63;;;21.62;66.02
67397;BME280;57728;50.448;18.824;2022-08-18T03:49:36;97550.94;;;21.60;65.87
67397;BME280;57728;50.448;18.824;2022-08-18T03:51:42;97553.25;;;21.58;65.90
67397;BME280;57728;50.448;18.824;2022-08-18T03:53:48;97527.53;;;21.43;66.36
67397;BME280;57728;50.448;18.824;2022-08-18T03:55:49;97542.47;;;21.46;66.18
67397;BME280;57728;50.448;18.824;2022-08-18T03:57:52;97547.63;;;21.51;66.29
67397;BME280;57728;50.448;18.824;2022-08-18T03:59:55;97549.94;;;21.49;66.44
67397;BME280;57728;50.448;18.824;2022-08-18T04:01:56;97550.31;;;21.47;66.09
67397;BME280;57728;50.448;18.824;2022-08-18T04:04:01;97491.66;;;21.09;65.95
67397;BME280;57728;50.448;18.824;2022-08-18T04:06:05;97553.84;;;21.48;66.10
67397;BME280;57728;50.448;18.824;2022-08-18T04:08:06;97541.72;;;21.49;66.57
67397;BME280;57728;50.448;18.824;2022-08-18T04:10:08;97543.31;;;21.50;66.12
67397;BME280;57728;50.448;18.824;2022-08-18T04:12:13;97535.75;;;21.43;66.42
67397;BME280;57728;50.448;18.824;2022-08-18T04:14:20;97537.84;;;21.50;65.98
67397;BME280;57728;50.448;18.824;2022-08-18T04:16:29;97526.75;;;21.43;66.32
67397;BME280;57728;50.448;18.824;2022-08-18T04:18:34;97546.94;;;21.57;65.74
67397;BME280;57728;50.448;18.824;2022-08-18T04:20:35;97545.88;;;21.62;66.13
67397;BME280;57728;50.448;18.824;2022-08-18T04:22:37;97551.41;;;21.65;65.61
67397;BME280;57728;50.448;18.824;2022-08-18T04:24:39;97544.00;;;21.66;65.96
67397;BME280;57728;50.448;18.824;2022-08-18T04:26:44;97543.19;;;21.65;65.46
67397;BME280;57728;50.448;18.824;2022-08-18T04:28:49;97542.91;;;21.71;65.49
67397;BME280;57728;50.448;18.824;2022-08-18T04:30:50;97536.19;;;21.68;65.62
67397;BME280;57728;50.448;18.824;2022-08-18T04:32:52;97549.78;;;21.84;65.61
67397;BME280;57728;50.448;18.824;2022-08-18T04:34:54;97544.34;;;21.87;64.93
67397;BME280;57728;50.448;18.824;2022-08-18T04:36:58;97536.06;;;21.84;65.42
67397;BME280;57728;50.448;18.824;2022-08-18T04:39:04;97530.16;;;21.82;65.14
67397;BME280;57728;50.448;18.824;2022-08-18T04:41:10;97548.06;;;21.99;64.82
67397;BME280;57728;50.448;18.824;2022-08-18T04:43:13;97547.75;;;22.04;64.42
67397;BME280;57728;50.448;18.824;2022-08-18T04:45:15;97538.66;;;22.00;64.41
67397;BME280;57728;50.448;18.824;2022-08-18T04:47:17;97534.75;;;22.01;64.63
67397;BME280;57728;50.448;18.824;2022-08-18T04:49:22;97552.28;;;22.16;64.21
67397;BME280;57728;50.448;18.824;2022-08-18T04:51:28;97549.94;;;22.18;64.11
67397;BME280;57728;50.448;18.824;2022-08-18T04:53:34;97553.22;;;22.27;63.79
67397;BME280;57728;50.448;18.824;2022-08-18T04:55:48;97554.09;;;22.31;63.48
67397;BME280;57728;50.448;18.824;2022-08-18T04:57:51;97565.13;;;22.34;63.46
67397;BME280;57728;50.448;18.824;2022-08-18T04:59:53;97565.97;;;22.38;63.37
67397;BME280;57728;50.448;18.824;2022-08-18T05:02:00;97557.72;;;22.38;63.12
67397;BME280;57728;50.448;18.824;2022-08-18T05:04:05;97551.00;;;22.36;63.16
67397;BME280;57728;50.448;18.824;2022-08-18T05:06:08;97561.38;;;22.46;63.24
67397;BME280;57728;50.448;18.824;2022-08-18T05:08:09;97554.66;;;22.44;63.27
67397;BME280;57728;50.448;18.824;2022-08-18T05:10:11;97557.44;;;22.47;63.42
67397;BME280;57728;50.448;18.824;2022-08-18T05:12:15;97546.41;;;22.44;63.23
67397;BME280;57728;50.448;18.824;2022-08-18T05:14:17;97551.22;;;22.50;63.21
67397;BME280;57728;50.448;18.824;2022-08-18T05:16:19;97542.16;;;22.46;63.08
67397;BME280;57728;50.448;18.824;2022-08-18T05:18:23;97563.06;;;22.58;63.13
67397;BME280;57728;50.448;18.824;2022-08-18T05:20:24;97558.41;;;22.58;62.97
67397;BME280;57728;50.448;18.824;2022-08-18T05:22:25;97555.31;;;22.63;62.75
67397;BME280;57728;50.448;18.824;2022-08-18T05:24:30;97531.25;;;22.53;63.14
67397;BME280;57728;50.448;18.824;2022-08-18T05:26:33;97559.31;;;22.70;62.55
67397;BME280;57728;50.448;18.824;2022-08-18T05:28:35;97557.00;;;22.72;62.39
67397;BME280;57728;50.448;18.824;2022-08-18T05:30:41;97567.59;;;22.73;62.88
67397;BME280;57728;50.448;18.824;2022-08-18T05:32:44;97548.75;;;22.72;62.79
67397;BME280;57728;50.448;18.824;2022-08-18T05:34:46;97566.97;;;22.83;62.69
67397;BME280;57728;50.448;18.824;2022-08-18T05:37:00;97571.38;;;22.88;62.72
67397;BME280;57728;50.448;18.824;2022-08-18T05:39:24;97555.16;;;22.79;62.01
67397;BME280;57728;50.448;18.824;2022-08-18T05:42:06;97573.88;;;23.00;62.18
67397;BME280;57728;50.448;18.824;2022-08-18T05:44:14;97563.28;;;22.99;61.85
67397;BME280;57728;50.448;18.824;2022-08-18T05:46:48;97570.06;;;23.08;61.91
67397;BME280;57728;50.448;18.824;2022-08-18T05:48:54;97571.69;;;23.13;62.07
67397;BME280;57728;50.448;18.824;2022-08-18T05:50:57;97572.91;;;23.16;61.96
67397;BME280;57728;50.448;18.824;2022-08-18T05:53:11;97577.72;;;23.26;61.38
67397;BME280;57728;50.448;18.824;2022-08-18T05:58:04;97541.97;;;23.26;60.94
67397;BME280;57728;50.448;18.824;2022-08-18T06:00:11;97560.59;;;23.40;61.10
67397;BME280;57728;50.448;18.824;2022-08-18T06:06:55;97565.03;;;23.51;60.58
67397;BME280;57728;50.448;18.824;2022-08-18T06:09:17;97567.03;;;23.54;60.97
67397;BME280;57728;50.448;18.824;2022-08-18T06:11:28;97575.38;;;23.61;60.71
67397;BME280;57728;50.448;18.824;2022-08-18T06:13:37;97579.78;;;23.70;60.63
67397;BME280;57728;50.448;18.824;2022-08-18T06:26:40;97593.50;;;24.07;59.83
67397;BME280;57728;50.448;18.824;2022-08-18T06:34:31;97586.06;;;24.15;58.44
67397;BME280;57728;50.448;18.824;2022-08-18T06:37:02;97601.88;;;24.25;58.60
67397;BME280;57728;50.448;18.824;2022-08-18T06:39:34;97605.09;;;24.30;58.27
67397;BME280;57728;50.448;18.824;2022-08-18T06:41:46;97602.78;;;24.32;57.65
67397;BME280;57728;50.448;18.824;2022-08-18T06:44:12;97610.28;;;24.36;57.56
67397;BME280;57728;50.448;18.824;2022-08-18T06:51:46;97598.97;;;24.51;57.95
67397;BME280;57728;50.448;18.824;2022-08-18T06:54:03;97601.75;;;24.58;57.38
67397;BME280;57728;50.448;18.824;2022-08-18T06:58:40;97583.28;;;24.59;56.96
67397;BME280;57728;50.448;18.824;2022-08-18T07:01:04;97616.88;;;24.82;56.80
67397;BME280;57728;50.448;18.824;2022-08-18T07:03:20;97602.75;;;24.88;56.94
67397;BME280;57728;50.448;18.824;2022-08-18T07:05:26;97610.72;;;25.03;56.92
67397;BME280;57728;50.448;18.824;2022-08-18T07:07:36;97613.16;;;25.16;56.69
67397;BME280;57728;50.448;18.824;2022-08-18T07:09:39;97599.34;;;25.19;55.79
67397;BME280;57728;50.448;18.824;2022-08-18T07:14:12;97614.06;;;25.55;55.36
67397;BME280;57728;50.448;18.824;2022-08-18T07:18:27;97610.59;;;25.69;54.41
67397;BME280;57728;50.448;18.824;2022-08-18T07:20:29;97601.56;;;25.76;54.34
67397;BME280;57728;50.448;18.824;2022-08-18T07:22:51;97604.31;;;25.90;54.26
67397;BME280;57728;50.448;18.824;2022-08-18T07:24:55;97605.88;;;25.95;53.45
67397;BME280;57728;50.448;18.824;2022-08-18T07:27:20;97607.88;;;26.05;52.92
67397;BME280;57728;50.448;18.824;2022-08-18T07:29:24;97601.19;;;26.13;53.07
67397;BME280;57728;50.448;18.824;2022-08-18T07:33:42;97604.38;;;26.37;53.57
67397;BME280;57728;50.448;18.824;2022-08-18T07:35:59;97596.06;;;26.47;52.01
67397;BME280;57728;50.448;18.824;2022-08-18T07:38:29;97588.16;;;26.53;51.79
67397;BME280;57728;50.448;18.824;2022-08-18T07:40:43;97566.44;;;26.51;51.70
67397;BME280;57728;50.448;18.824;2022-08-18T07:45:39;97582.19;;;26.76;51.52
67397;BME280;57728;50.448;18.824;2022-08-18T07:47:53;97589.69;;;26.97;51.55
67397;BME280;57728;50.448;18.824;2022-08-18T07:49:57;97578.97;;;27.06;50.26
67397;BME280;57728;50.448;18.824;2022-08-18T07:52:19;97588.03;;;27.14;49.73
67397;BME280;57728;50.448;18.824;2022-08-18T08:02:46;97604.88;;;27.51;48.67
67397;BME280;57728;50.448;18.824;2022-08-18T08:10:04;97602.81;;;27.66;47.90
67397;BME280;57728;50.448;18.824;2022-08-18T08:15:35;97611.03;;;27.81;47.24
67397;BME280;57728;50.448;18.824;2022-08-18T08:18:03;97609.09;;;27.77;47.41
67397;BME280;57728;50.448;18.824;2022-08-18T08:20:21;97613.41;;;27.79;47.12
67397;BME280;57728;50.448;18.824;2022-08-18T08:23:23;97623.66;;;27.85;47.09
67397;BME280;57728;50.448;18.824;2022-08-18T08:25:30;97609.53;;;27.69;46.96
67397;BME280;57728;50.448;18.824;2022-08-18T08:30:16;97631.44;;;28.05;47.97
67397;BME280;57728;50.448;18.824;2022-08-18T08:32:34;97632.56;;;28.18;48.08
67397;BME280;57728;50.448;18.824;2022-08-18T08:35:10;97634.47;;;28.24;45.91
67397;BME280;57728;50.448;18.824;2022-08-18T08:37:23;97624.59;;;28.23;46.11
67397;BME280;57728;50.448;18.824;2022-08-18T08:39:57;97634.78;;;28.37;44.96
67397;BME280;57728;50.448;18.824;2022-08-18T08:44:53;97626.13;;;28.28;44.00
67397;BME280;57728;50.448;18.824;2022-08-18T08:47:09;97645.78;;;28.44;43.48
67397;BME280;57728;50.448;18.824;2022-08-18T08:49:36;97635.38;;;28.59;44.18
67397;BME280;57728;50.448;18.824;2022-08-18T08:51:51;97637.63;;;28.75;44.17
67397;BME280;57728;50.448;18.824;2022-08-18T08:54:09;97646.63;;;28.90;43.92
67397;BME280;57728;50.448;18.824;2022-08-18T08:56:39;97648.94;;;28.95;42.33
67397;BME280;57728;50.448;18.824;2022-08-18T08:58:51;97646.56;;;28.93;42.54
67397;BME280;57728;50.448;18.824;2022-08-18T09:01:00;97642.94;;;29.00;41.99
67397;BME280;57728;50.448;18.824;2022-08-18T09:14:42;97639.13;;;30.40;40.76
67397;BME280;57728;50.448;18.824;2022-08-18T09:17:20;97645.16;;;30.82;39.63
67397;BME280;57728;50.448;18.824;2022-08-18T09:19:38;97646.53;;;31.17;38.42
67397;BME280;57728;50.448;18.824;2022-08-18T09:28:59;97652.13;;;33.07;35.61
67397;BME280;57728;50.448;18.824;2022-08-18T09:31:17;97643.44;;;33.47;33.84
67397;BME280;57728;50.448;18.824;2022-08-18T09:36:01;97652.47;;;34.31;33.81
67397;BME280;57728;50.448;18.824;2022-08-18T09:38:18;97650.81;;;34.94;31.39
67397;BME280;57728;50.448;18.824;2022-08-18T09:40:58;97655.81;;;35.56;31.23
67397;BME280;57728;50.448;18.824;2022-08-18T09:45:56;97650.34;;;36.46;29.26
67397;BME280;57728;50.448;18.824;2022-08-18T09:54:23;97655.22;;;37.74;27.23
67397;BME280;57728;50.448;18.824;2022-08-18T09:58:52;97642.56;;;38.21;26.69
67397;BME280;57728;50.448;18.824;2022-08-18T10:03:34;97636.88;;;38.54;24.68
67397;BME280;57728;50.448;18.824;2022-08-18T10:05:37;97625.75;;;38.60;25.03
67397;BME280;57728;50.448;18.824;2022-08-18T10:10:46;97612.94;;;39.07;25.32
67397;BME280;57728;50.448;18.824;2022-08-18T10:23:50;97612.56;;;40.38;23.49
67397;BME280;57728;50.448;18.824;2022-08-18T10:25:52;97608.81;;;40.67;22.61
67397;BME280;57728;50.448;18.824;2022-08-18T10:27:55;97605.44;;;40.83;22.75
67397;BME280;57728;50.448;18.824;2022-08-18T10:29:57;97604.19;;;40.84;21.76
67397;BME280;57728;50.448;18.824;2022-08-18T10:36:32;97589.94;;;41.46;21.64
67397;BME280;57728;50.448;18.824;2022-08-18T10:38:45;97583.63;;;41.56;21.90
67397;BME280;57728;50.448;18.824;2022-08-18T10:40:59;97582.44;;;41.69;20.69
67397;BME280;57728;50.448;18.824;2022-08-18T10:43:39;97566.78;;;41.73;20.81
67397;BME280;57728;50.448;18.824;2022-08-18T10:45:51;97567.97;;;41.61;20.02
67397;BME280;57728;50.448;18.824;2022-08-18T10:50:19;97570.56;;;41.96;20.29
67397;BME280;57728;50.448;18.824;2022-08-18T11:00:08;97564.44;;;41.72;20.64
67397;BME280;57728;50.448;18.824;2022-08-18T11:04:40;97564.44;;;41.72;20.76
67397;BME280;57728;50.448;18.824;2022-08-18T11:09:27;97552.84;;;41.64;20.36
67397;BME280;57728;50.448;18.824;2022-08-18T11:11:35;97553.94;;;41.46;19.71
67397;BME280;57728;50.448;18.824;2022-08-18T11:14:14;97547.38;;;41.29;21.17
67397;BME280;57728;50.448;18.824;2022-08-18T11:17:08;97543.03;;;41.33;20.48
67397;BME280;57728;50.448;18.824;2022-08-18T11:19:24;97550.75;;;41.33;21.02
67397;BME280;57728;50.448;18.824;2022-08-18T11:23:32;97536.66;;;41.70;20.47
67397;BME280;57728;50.448;18.824;2022-08-18T11:25:36;97528.81;;;41.91;20.08
67397;BME280;57728;50.448;18.824;2022-08-18T11:27:45;97529.75;;;42.08;19.64
67397;BME280;57728;50.448;18.824;2022-08-18T11:29:49;97536.13;;;42.03;19.90
67397;BME280;57728;50.448;18.824;2022-08-18T11:34:49;97526.66;;;41.75;19.86
67397;BME280;57728;50.448;18.824;2022-08-18T11:36:57;97523.34;;;41.76;20.04
67397;BME280;57728;50.448;18.824;2022-08-18T11:39:01;97528.34;;;41.93;19.92
67397;BME280;57728;50.448;18.824;2022-08-18T11:41:15;97526.69;;;42.23;19.34
67397;BME280;57728;50.448;18.824;2022-08-18T11:43:27;97531.22;;;42.52;19.93
67397;BME280;57728;50.448;18.824;2022-08-18T11:45:35;97519.28;;;42.31;19.44
67397;BME280;57728;50.448;18.824;2022-08-18T11:50:31;97520.22;;;42.11;19.84
67397;BME280;57728;50.448;18.824;2022-08-18T11:52:49;97516.97;;;42.30;20.06
67397;BME280;57728;50.448;18.824;2022-08-18T11:55:03;97517.44;;;42.23;20.34
67397;BME280;57728;50.448;18.824;2022-08-18T11:57:54;97512.84;;;42.31;19.90
67397;BME280;57728;50.448;18.824;2022-08-18T11:59:57;97508.47;;;42.30;20.45
67397;BME280;57728;50.448;18.824;2022-08-18T12:01:58;97494.31;;;42.30;19.43
67397;BME280;57728;50.448;18.824;2022-08-18T12:06:25;97511.34;;;42.35;19.43
67397;BME280;57728;50.448;18.824;2022-08-18T12:08:34;97503.06;;;42.32;20.00
67397;BME280;57728;50.448;18.824;2022-08-18T12:10:38;97509.56;;;42.44;19.44
67397;BME280;57728;50.448;18.824;2022-08-18T12:12:46;97506.34;;;42.19;19.77
67397;BME280;57728;50.448;18.824;2022-08-18T12:17:21;97500.50;;;41.85;20.56
67397;BME280;57728;50.448;18.824;2022-08-18T12:19:25;97498.16;;;41.84;19.89
67397;BME280;57728;50.448;18.824;2022-08-18T12:21:37;97488.81;;;41.67;20.22
67397;BME280;57728;50.448;18.824;2022-08-18T12:23:40;97484.69;;;41.30;20.20
67397;BME280;57728;50.448;18.824;2022-08-18T12:25:41;97489.63;;;41.09;21.25
67397;BME280;57728;50.448;18.824;2022-08-18T12:27:43;97477.75;;;41.31;20.35
67397;BME280;57728;50.448;18.824;2022-08-18T12:29:45;97452.50;;;41.22;20.41
67397;BME280;57728;50.448;18.824;2022-08-18T12:31:48;97476.00;;;41.39;20.64
67397;BME280;57728;50.448;18.824;2022-08-18T12:33:51;97477.81;;;41.43;20.30
67397;BME280;57728;50.448;18.824;2022-08-18T12:35:53;97473.53;;;41.53;20.16
67397;BME280;57728;50.448;18.824;2022-08-18T12:37:54;97476.72;;;41.60;19.91
67397;BME280;57728;50.448;18.824;2022-08-18T12:39:57;97479.97;;;41.53;20.02
67397;BME280;57728;50.448;18.824;2022-08-18T12:42:01;97471.91;;;41.41;20.29
67397;BME280;57728;50.448;18.824;2022-08-18T12:44:02;97476.41;;;41.58;20.45
67397;BME280;57728;50.448;18.824;2022-08-18T12:46:04;97477.59;;;41.83;19.96
67397;BME280;57728;50.448;18.824;2022-08-18T12:48:07;97480.03;;;41.96;20.16
67397;BME280;57728;50.448;18.824;2022-08-18T12:50:09;97470.84;;;41.75;19.77
67397;BME280;57728;50.448;18.824;2022-08-18T12:52:10;97471.97;;;41.52;20.42
67397;BME280;57728;50.448;18.824;2022-08-18T12:54:12;97473.88;;;41.29;19.99
67397;BME280;57728;50.448;18.824;2022-08-18T12:56:25;97466.81;;;41.45;20.34
67397;BME280;57728;50.448;18.824;2022-08-18T12:58:32;97471.31;;;41.31;19.71
67397;BME280;57728;50.448;18.824;2022-08-18T13:00:34;97478.66;;;41.17;20.32
67397;BME280;57728;50.448;18.824;2022-08-18T13:02:35;97462.72;;;40.88;20.62
67397;BME280;57728;50.448;18.824;2022-08-18T13:04:36;97474.13;;;40.73;21.04
67397;BME280;57728;50.448;18.824;2022-08-18T13:06:51;97471.13;;;40.56;20.56
67397;BME280;57728;50.448;18.824;2022-08-18T13:08:55;97479.88;;;40.38;20.71
67397;BME280;57728;50.448;18.824;2022-08-18T13:10:56;97475.31;;;40.20;21.70
67397;BME280;57728;50.448;18.824;2022-08-18T13:13:00;97488.41;;;40.23;21.45
67397;BME280;57728;50.448;18.824;2022-08-18T13:15:03;97477.41;;;40.25;21.75
67397;BME280;57728;50.448;18.824;2022-08-18T13:17:06;97497.72;;;40.29;21.36
67397;BME280;57728;50.448;18.824;2022-08-18T13:19:09;97490.91;;;40.15;21.57
67397;BME280;57728;50.448;18.824;2022-08-18T13:21:13;97501.16;;;39.98;21.18
67397;BME280;57728;50.448;18.824;2022-08-18T13:23:16;97495.88;;;39.71;21.20
67397;BME280;57728;50.448;18.824;2022-08-18T13:25:17;97502.63;;;39.58;21.63
67397;BME280;57728;50.448;18.824;2022-08-18T13:27:19;97496.00;;;39.61;22.10
67397;BME280;57728;50.448;18.824;2022-08-18T13:29:22;97501.81;;;39.73;22.13
67397;BME280;57728;50.448;18.824;2022-08-18T13:31:25;97495.84;;;39.85;21.28
67397;BME280;57728;50.448;18.824;2022-08-18T13:33:27;97500.91;;;39.96;21.31